sensor_id;sensor_type;location;lat;lon;timestamp;pressure;altitude;pressure_sealevel;temperature;humidity
27304;BME280;14791;52.392;13.092;2024-03-08T00:00:15;101979.06;;;9.08;34.72
27304;BME280;14791;52.392;13.092;2024-03-08T00:02:46;101979.18;;;9.05;34.79
27304;BME280;14791;52.392;13.092;2024-03-08T00:05:17;101977.50;;;9.03;34.85
27304;BME280;14791;52.392;13.092;2024-03-08T00:07:46;101982.44;;;9.00;34.88
27304;BME280;14791;52.392;13.092;2024-03-08T00:10:15;101970.56;;;8.97;34.91
27304;BME280;14791;52.392;13.092;2024-03-08T00:12:45;101971.08;;;8.95;34.97
27304;BME280;14791;52.392;13.092;2024-03-08T00:15:16;101971.59;;;8.93;34.95
27304;BME280;14791;52.392;13.092;2024-03-08T00:17:45;101972.53;;;8.92;35.06
27304;BME280;14791;52.392;13.092;2024-03-08T00:20:15;101967.78;;;8.88;35.06
27304;BME280;14791;52.392;13.092;2024-03-08T00:22:46;101972.33;;;8.85;35.06
27304;BME280;14791;52.392;13.092;2024-03-08T00:25:15;101972.45;;;8.82;35.14
27304;BME280;14791;52.392;13.092;2024-03-08T00:27:44;101970.41;;;8.77;35.11
27304;BME280;14791;52.392;13.092;2024-03-08T00:30:14;101968.41;;;8.70;35.13
27304;BME280;14791;52.392;13.092;2024-03-08T00:32:43;101971.63;;;8.66;35.26
27304;BME280;14791;52.392;13.092;2024-03-08T00:35:12;101970.83;;;8.64;35.23
27304;BME280;14791;52.392;13.092;2024-03-08T00:37:41;101969.55;;;8.63;35.29
27304;BME280;14791;52.392;13.092;2024-03-08T00:40:11;101970.52;;;8.60;35.33
27304;BME280;14791;52.392;13.092;2024-03-08T00:42:40;101965.73;;;8.57;35.33
27304;BME280;14791;52.392;13.092;2024-03-08T00:45:11;101966.32;;;8.53;35.29
27304;BME280;14791;52.392;13.092;2024-03-08T00:47:40;101962.95;;;8.48;35.35
27304;BME280;14791;52.392;13.092;2024-03-08T00:53:01;101958.31;;;8.40;35.52
27304;BME280;14791;52.392;13.092;2024-03-08T00:55:30;101955.84;;;8.34;35.51
27304;BME280;14791;52.392;13.092;2024-03-08T00:57:59;101955.13;;;8.28;35.60
27304;BME280;14791;52.392;13.092;2024-03-08T01:00:29;101957.97;;;8.22;35.74
27304;BME280;14791;52.392;13.092;2024-03-08T01:02:58;101955.42;;;8.19;35.81
27304;BME280;14791;52.392;13.092;2024-03-08T01:05:27;101946.18;;;8.16;35.87
27304;BME280;14791;52.392;13.092;2024-03-08T01:07:56;101946.80;;;8.11;35.87
27304;BME280;14791;52.392;13.092;2024-03-08T01:10:25;101948.63;;;8.09;35.89
27304;BME280;14791;52.392;13.092;2024-03-08T01:12:54;101945.60;;;8.06;35.92
27304;BME280;14791;52.392;13.092;2024-03-08T01:15:24;101941.32;;;8.02;35.94
27304;BME280;14791;52.392;13.092;2024-03-08T01:17:53;101937.88;;;7.99;35.97
27304;BME280;14791;52.392;13.092;2024-03-08T01:20:22;101934.38;;;7.97;36.02
27304;BME280;14791;52.392;13.092;2024-03-08T01:22:51;101933.62;;;7.93;36.13
27304;BME280;14791;52.392;13.092;2024-03-08T01:25:20;101933.27;;;7.91;36.11
27304;BME280;14791;52.392;13.092;2024-03-08T01:27:49;101927.12;;;7.88;36.16
27304;BME280;14791;52.392;13.092;2024-03-08T01:30:17;101929.89;;;7.85;36.22
27304;BME280;14791;52.392;13.092;2024-03-08T01:32:46;101919.28;;;7.84;36.21
27304;BME280;14791;52.392;13.092;2024-03-08T01:35:15;101920.64;;;7.82;36.21
27304;BME280;14791;52.392;13.092;2024-03-08T01:37:45;101922.91;;;7.81;36.24
27304;BME280;14791;52.392;13.092;2024-03-08T01:40:14;101912.77;;;7.79;36.26
27304;BME280;14791;52.392;13.092;2024-03-08T01:42:44;101919.53;;;7.76;36.28
27304;BME280;14791;52.392;13.092;2024-03-08T01:45:14;101909.39;;;7.74;36.32
27304;BME280;14791;52.392;13.092;2024-03-08T01:47:44;101908.09;;;7.73;36.44
27304;BME280;14791;52.392;13.092;2024-03-08T01:50:14;101904.57;;;7.72;36.43
27304;BME280;14791;52.392;13.092;2024-03-08T01:52:44;101906.88;;;7.70;36.41
27304;BME280;14791;52.392;13.092;2024-03-08T01:55:13;101895.41;;;7.67;36.40
27304;BME280;14791;52.392;13.092;2024-03-08T01:57:44;101894.64;;;7.64;36.40
27304;BME280;14791;52.392;13.092;2024-03-08T02:00:13;101893.38;;;7.61;36.49
27304;BME280;14791;52.392;13.092;2024-03-08T02:02:42;101893.48;;;7.58;36.50
27304;BME280;14791;52.392;13.092;2024-03-08T02:05:12;101886.52;;;7.54;36.52
27304;BME280;14791;52.392;13.092;2024-03-08T02:07:44;101887.48;;;7.51;36.60
27304;BME280;14791;52.392;13.092;2024-03-08T02:10:14;101887.63;;;7.46;36.62
27304;BME280;14791;52.392;13.092;2024-03-08T02:12:43;101885.56;;;7.41;36.64
27304;BME280;14791;52.392;13.092;2024-03-08T02:15:12;101886.56;;;7.37;36.67
27304;BME280;14791;52.392;13.092;2024-03-08T02:17:41;101885.91;;;7.31;36.74
27304;BME280;14791;52.392;13.092;2024-03-08T02:20:11;101883.77;;;7.27;36.79
27304;BME280;14791;52.392;13.092;2024-03-08T02:22:41;101879.45;;;7.23;36.84
27304;BME280;14791;52.392;13.092;2024-03-08T02:25:09;101874.73;;;7.18;36.91
27304;BME280;14791;52.392;13.092;2024-03-08T02:27:39;101877.89;;;7.16;36.94
27304;BME280;14791;52.392;13.092;2024-03-08T02:30:09;101874.94;;;7.12;36.95
27304;BME280;14791;52.392;13.092;2024-03-08T02:32:40;101870.59;;;7.09;36.97
27304;BME280;14791;52.392;13.092;2024-03-08T02:35:08;101871.98;;;7.06;37.03
27304;BME280;14791;52.392;13.092;2024-03-08T02:37:37;101872.05;;;7.05;37.10
27304;BME280;14791;52.392;13.092;2024-03-08T02:40:07;101867.20;;;7.04;37.21
27304;BME280;14791;52.392;13.092;2024-03-08T02:42:36;101869.79;;;7.06;37.29
27304;BME280;14791;52.392;13.092;2024-03-08T02:45:06;101868.00;;;7.06;37.42
27304;BME280;14791;52.392;13.092;2024-03-08T02:47:36;101864.01;;;7.06;37.48
27304;BME280;14791;52.392;13.092;2024-03-08T02:50:06;101867.59;;;7.05;37.43
27304;BME280;14791;52.392;13.092;2024-03-08T02:52:37;101866.30;;;7.03;37.46
27304;BME280;14791;52.392;13.092;2024-03-08T02:55:06;101868.95;;;7.03;37.43
27304;BME280;14791;52.392;13.092;2024-03-08T02:57:36;101861.05;;;7.02;37.43
27304;BME280;14791;52.392;13.092;2024-03-08T03:00:06;101855.77;;;7.00;37.44
27304;BME280;14791;52.392;13.092;2024-03-08T03:02:37;101861.12;;;6.99;37.46
27304;BME280;14791;52.392;13.092;2024-03-08T03:05:06;101862.51;;;6.97;37.46
27304;BME280;14791;52.392;13.092;2024-03-08T03:07:37;101856.86;;;6.93;37.45
27304;BME280;14791;52.392;13.092;2024-03-08T03:10:07;101854.70;;;6.91;37.48
27304;BME280;14791;52.392;13.092;2024-03-08T03:12:36;101849.09;;;6.87;37.52
27304;BME280;14791;52.392;13.092;2024-03-08T03:15:06;101854.46;;;6.84;37.55
27304;BME280;14791;52.392;13.092;2024-03-08T03:17:35;101849.64;;;6.82;37.61
27304;BME280;14791;52.392;13.092;2024-03-08T03:20:11;101850.17;;;6.80;37.65
27304;BME280;14791;52.392;13.092;2024-03-08T03:22:37;101855.92;;;6.79;37.66
27304;BME280;14791;52.392;13.092;2024-03-08T03:25:12;101848.45;;;6.77;37.61
27304;BME280;14791;52.392;13.092;2024-03-08T03:27:37;101848.98;;;6.75;37.56
27304;BME280;14791;52.392;13.092;2024-03-08T03:30:08;101841.04;;;6.74;37.58
27304;BME280;14791;52.392;13.092;2024-03-08T03:32:49;101846.84;;;6.72;37.62
27304;BME280;14791;52.392;13.092;2024-03-08T03:35:19;101849.59;;;6.69;37.63
27304;BME280;14791;52.392;13.092;2024-03-08T03:37:50;101847.43;;;6.67;37.65
27304;BME280;14791;52.392;13.092;2024-03-08T03:40:34;101846.56;;;6.66;37.78
27304;BME280;14791;52.392;13.092;2024-03-08T03:43:04;101849.75;;;6.63;37.84
27304;BME280;14791;52.392;13.092;2024-03-08T03:45:32;101853.73;;;6.63;37.91
27304;BME280;14791;52.392;13.092;2024-03-08T03:48:05;101851.14;;;6.61;37.91
27304;BME280;14791;52.392;13.092;2024-03-08T03:50:37;101849.01;;;6.57;37.95
27304;BME280;14791;52.392;13.092;2024-03-08T03:53:06;101847.31;;;6.55;37.95
27304;BME280;14791;52.392;13.092;2024-03-08T03:55:35;101850.00;;;6.53;38.01
27304;BME280;14791;52.392;13.092;2024-03-08T03:58:06;101852.25;;;6.52;38.05
27304;BME280;14791;52.392;13.092;2024-03-08T04:00:35;101852.65;;;6.53;38.20
27304;BME280;14791;52.392;13.092;2024-03-08T04:03:04;101847.34;;;6.53;38.28
27304;BME280;14791;52.392;13.092;2024-03-08T04:05:33;101846.84;;;6.55;38.32
27304;BME280;14791;52.392;13.092;2024-03-08T04:08:02;101847.28;;;6.56;38.33
27304;BME280;14791;52.392;13.092;2024-03-08T04:10:31;101849.01;;;6.57;38.41
27304;BME280;14791;52.392;13.092;2024-03-08T04:13:00;101846.36;;;6.57;38.43
27304;BME280;14791;52.392;13.092;2024-03-08T04:15:29;101842.71;;;6.62;38.41
27304;BME280;14791;52.392;13.092;2024-03-08T04:17:58;101844.88;;;6.64;38.42
27304;BME280;14791;52.392;13.092;2024-03-08T04:20:28;101847.92;;;6.65;38.39
27304;BME280;14791;52.392;13.092;2024-03-08T04:22:58;101847.92;;;6.65;38.34
27304;BME280;14791;52.392;13.092;2024-03-08T04:25:27;101844.88;;;6.64;38.30
27304;BME280;14791;52.392;13.092;2024-03-08T04:27:56;101842.64;;;6.63;38.31
27304;BME280;14791;52.392;13.092;2024-03-08T04:30:24;101844.44;;;6.63;38.31
27304;BME280;14791;52.392;13.092;2024-03-08T04:32:55;101845.77;;;6.63;38.31
27304;BME280;14791;52.392;13.092;2024-03-08T04:35:25;101842.71;;;6.62;38.27
27304;BME280;14791;52.392;13.092;2024-03-08T04:37:53;101839.63;;;6.60;38.23
27304;BME280;14791;52.392;13.092;2024-03-08T04:40:22;101833.52;;;6.58;38.26
27304;BME280;14791;52.392;13.092;2024-03-08T04:42:51;101833.55;;;6.57;38.23
27304;BME280;14791;52.392;13.092;2024-03-08T04:45:21;101842.47;;;6.54;38.27
27304;BME280;14791;52.392;13.092;2024-03-08T04:47:50;101836.32;;;6.52;38.27
27304;BME280;14791;52.392;13.092;2024-03-08T04:50:20;101836.34;;;6.51;38.32
27304;BME280;14791;52.392;13.092;2024-03-08T04:52:49;101844.28;;;6.52;38.36
27304;BME280;14791;52.392;13.092;2024-03-08T04:55:18;101836.72;;;6.53;38.40
27304;BME280;14791;52.392;13.092;2024-03-08T04:57:49;101839.81;;;6.54;38.42
27304;BME280;14791;52.392;13.092;2024-03-08T05:00:18;101844.19;;;6.55;38.43
27304;BME280;14791;52.392;13.092;2024-03-08T05:02:47;101842.47;;;6.54;38.43
27304;BME280;14791;52.392;13.092;2024-03-08T05:05:15;101844.69;;;6.53;38.40
27304;BME280;14791;52.392;13.092;2024-03-08T05:07:44;101842.56;;;6.51;38.39
27304;BME280;14791;52.392;13.092;2024-03-08T05:10:13;101839.94;;;6.50;38.41
27304;BME280;14791;52.392;13.092;2024-03-08T05:12:44;101840.89;;;6.47;38.44
27304;BME280;14791;52.392;13.092;2024-03-08T05:15:13;101838.73;;;6.45;38.46
27304;BME280;14791;52.392;13.092;2024-03-08T05:17:42;101844.96;;;6.44;38.44
27304;BME280;14791;52.392;13.092;2024-03-08T05:20:11;101839.69;;;6.43;38.42
27304;BME280;14791;52.392;13.092;2024-03-08T05:22:41;101837.06;;;6.41;38.48
27304;BME280;14791;52.392;13.092;2024-03-08T05:25:10;101831.81;;;6.39;38.49
27304;BME280;14791;52.392;13.092;2024-03-08T05:27:40;101827.46;;;6.37;38.56
27304;BME280;14791;52.392;13.092;2024-03-08T05:30:09;101825.70;;;6.36;38.60
27304;BME280;14791;52.392;13.092;2024-03-08T05:32:42;101820.05;;;6.32;38.69
27304;BME280;14791;52.392;13.092;2024-03-08T05:35:13;101816.59;;;6.30;38.72
27304;BME280;14791;52.392;13.092;2024-03-08T05:37:44;101822.42;;;6.26;38.78
27304;BME280;14791;52.392;13.092;2024-03-08T05:40:12;101814.48;;;6.25;38.78
27304;BME280;14791;52.392;13.092;2024-03-08T05:42:41;101816.28;;;6.24;38.76
27304;BME280;14791;52.392;13.092;2024-03-08T05:45:10;101820.72;;;6.24;38.73
27304;BME280;14791;52.392;13.092;2024-03-08T05:47:40;101819.39;;;6.24;38.80
27304;BME280;14791;52.392;13.092;2024-03-08T05:50:09;101821.67;;;6.21;38.80
27304;BME280;14791;52.392;13.092;2024-03-08T05:52:39;101822.56;;;6.20;38.86
27304;BME280;14791;52.392;13.092;2024-03-08T05:55:08;101818.16;;;6.21;38.91
27304;BME280;14791;52.392;13.092;2024-03-08T05:57:37;101818.16;;;6.21;39.01
27304;BME280;14791;52.392;13.092;2024-03-08T06:00:08;101822.14;;;6.21;39.06
27304;BME280;14791;52.392;13.092;2024-03-08T06:02:42;101822.54;;;6.22;39.10
27304;BME280;14791;52.392;13.092;2024-03-08T06:05:11;101822.05;;;6.24;39.09
27304;BME280;14791;52.392;13.092;2024-03-08T06:07:40;101824.21;;;6.26;39.19
27304;BME280;14791;52.392;13.092;2024-03-08T06:10:10;101821.93;;;6.28;39.24
27304;BME280;14791;52.392;13.092;2024-03-08T06:12:44;101826.31;;;6.29;39.27
27304;BME280;14791;52.392;13.092;2024-03-08T06:15:13;101833.75;;;6.33;39.30
27304;BME280;14791;52.392;13.092;2024-03-08T06:17:44;101819.09;;;6.34;39.33
27304;BME280;14791;52.392;13.092;2024-03-08T06:20:14;101828.69;;;6.40;39.37
27304;BME280;14791;52.392;13.092;2024-03-08T06:22:43;101828.63;;;6.42;39.35
27304;BME280;14791;52.392;13.092;2024-03-08T06:25:12;101828.57;;;6.45;39.36
27304;BME280;14791;52.392;13.092;2024-03-08T06:27:44;101832.00;;;6.48;39.38
27304;BME280;14791;52.392;13.092;2024-03-08T06:30:14;101827.95;;;6.51;39.41
27304;BME280;14791;52.392;13.092;2024-03-08T06:32:43;101819.41;;;6.56;39.47
27304;BME280;14791;52.392;13.092;2024-03-08T06:35:12;101826.32;;;6.62;39.47
27304;BME280;14791;52.392;13.092;2024-03-08T06:37:43;101820.88;;;6.67;39.46
27304;BME280;14791;52.392;13.092;2024-03-08T06:40:12;101815.08;;;6.69;39.44
27304;BME280;14791;52.392;13.092;2024-03-08T06:42:41;101818.86;;;6.75;39.46
27304;BME280;14791;52.392;13.092;2024-03-08T06:45:10;101812.53;;;6.80;39.48
27304;BME280;14791;52.392;13.092;2024-03-08T06:47:40;101811.07;;;6.85;39.49
27304;BME280;14791;52.392;13.092;2024-03-08T06:50:09;101809.55;;;6.91;39.56
27304;BME280;14791;52.392;13.092;2024-03-08T06:52:39;101806.72;;;6.97;39.54
27304;BME280;14791;52.392;13.092;2024-03-08T06:55:08;101803.47;;;7.02;39.56
27304;BME280;14791;52.392;13.092;2024-03-08T06:57:40;101808.18;;;7.08;39.53
27304;BME280;14791;52.392;13.092;2024-03-08T07:00:10;101804.92;;;7.13;39.53
27304;BME280;14791;52.392;13.092;2024-03-08T07:02:41;101805.22;;;7.18;39.52
27304;BME280;14791;52.392;13.092;2024-03-08T07:05:10;101806.37;;;7.23;39.49
27304;BME280;14791;52.392;13.092;2024-03-08T07:07:39;101803.14;;;7.28;39.46
27304;BME280;14791;52.392;13.092;2024-03-08T07:10:09;101804.37;;;7.31;39.47
27304;BME280;14791;52.392;13.092;2024-03-08T07:12:42;101806.42;;;7.36;39.49
27304;BME280;14791;52.392;13.092;2024-03-08T07:15:12;101808.08;;;7.40;39.50
27304;BME280;14791;52.392;13.092;2024-03-08T07:17:41;101809.19;;;7.46;39.56
27304;BME280;14791;52.392;13.092;2024-03-08T07:20:12;101808.51;;;7.55;39.54
27304;BME280;14791;52.392;13.092;2024-03-08T07:22:43;101805.20;;;7.61;39.52
27304;BME280;14791;52.392;13.092;2024-03-08T07:25:12;101804.95;;;7.69;39.54
27304;BME280;14791;52.392;13.092;2024-03-08T07:27:53;101803.39;;;7.75;39.54
27304;BME280;14791;52.392;13.092;2024-03-08T07:30:26;101798.28;;;7.82;39.54
27304;BME280;14791;52.392;13.092;2024-03-08T07:33:21;101795.31;;;7.92;39.50
27304;BME280;14791;52.392;13.092;2024-03-08T07:35:46;101794.70;;;7.97;39.46
27304;BME280;14791;52.392;13.092;2024-03-08T07:38:17;101791.73;;;8.06;39.41
27304;BME280;14791;52.392;13.092;2024-03-08T07:40:48;101780.81;;;8.14;39.36
27304;BME280;14791;52.392;13.092;2024-03-08T07:43:17;101784.56;;;8.21;39.28
27304;BME280;14791;52.392;13.092;2024-03-08T07:45:45;101785.19;;;8.28;39.28
27304;BME280;14791;52.392;13.092;2024-03-08T07:48:14;101786.20;;;8.37;39.26
27304;BME280;14791;52.392;13.092;2024-03-08T07:50:44;101780.19;;;8.45;39.22
27304;BME280;14791;52.392;13.092;2024-03-08T07:53:14;101785.11;;;8.56;39.16
27304;BME280;14791;52.392;13.092;2024-03-08T07:55:43;101778.51;;;8.66;39.11
27304;BME280;14791;52.392;13.092;2024-03-08T07:58:12;101775.03;;;8.76;39.07
27304;BME280;14791;52.392;13.092;2024-03-08T08:00:41;101773.27;;;8.88;39.03
27304;BME280;14791;52.392;13.092;2024-03-08T08:03:13;101768.45;;;8.98;38.98
27304;BME280;14791;52.392;13.092;2024-03-08T08:05:43;101765.41;;;9.07;38.98
27304;BME280;14791;52.392;13.092;2024-03-08T08:08:13;101765.99;;;9.15;38.94
27304;BME280;14791;52.392;13.092;2024-03-08T08:10:42;101773.63;;;9.25;38.80
27304;BME280;14791;52.392;13.092;2024-03-08T08:13:11;101767.52;;;9.33;38.73
27304;BME280;14791;52.392;13.092;2024-03-08T08:15:40;101766.76;;;9.41;38.85
27304;BME280;14791;52.392;13.092;2024-03-08T08:18:09;101760.69;;;9.48;38.68
27304;BME280;14791;52.392;13.092;2024-03-08T08:20:38;101756.84;;;9.55;38.70
27304;BME280;14791;52.392;13.092;2024-03-08T08:23:07;101756.88;;;9.65;38.57
27304;BME280;14791;52.392;13.092;2024-03-08T08:25:37;101757.28;;;9.76;38.43
27304;BME280;14791;52.392;13.092;2024-03-08T08:28:06;101753.37;;;9.85;38.82
27304;BME280;14791;52.392;13.092;2024-03-08T08:30:36;101749.36;;;9.95;38.60
27304;BME280;14791;52.392;13.092;2024-03-08T08:33:05;101757.40;;;10.06;38.65
27304;BME280;14791;52.392;13.092;2024-03-08T08:35:36;101747.24;;;10.14;38.40
27304;BME280;14791;52.392;13.092;2024-03-08T08:38:08;101744.56;;;10.24;38.44
27304;BME280;14791;52.392;13.092;2024-03-08T08:40:37;101746.91;;;10.32;38.72
27304;BME280;14791;52.392;13.092;2024-03-08T08:43:06;101745.65;;;10.40;38.54
27304;BME280;14791;52.392;13.092;2024-03-08T08:45:35;101739.09;;;10.48;38.54
27304;BME280;14791;52.392;13.092;2024-03-08T08:48:06;101739.59;;;10.56;38.83
27304;BME280;14791;52.392;13.092;2024-03-08T08:50:35;101737.94;;;10.63;38.77
27304;BME280;14791;52.392;13.092;2024-03-08T08:53:05;101730.89;;;10.71;38.66
27304;BME280;14791;52.392;13.092;2024-03-08T08:55:34;101722.19;;;10.76;38.26
27304;BME280;14791;52.392;13.092;2024-03-08T08:58:03;101722.69;;;10.84;38.12
27304;BME280;14791;52.392;13.092;2024-03-08T09:00:32;101718.40;;;10.91;37.99
27304;BME280;14791;52.392;13.092;2024-03-08T09:03:04;101720.38;;;10.96;37.88
27304;BME280;14791;52.392;13.092;2024-03-08T09:05:34;101716.47;;;11.03;38.14
27304;BME280;14791;52.392;13.092;2024-03-08T09:08:03;101715.66;;;11.11;38.05
27304;BME280;14791;52.392;13.092;2024-03-08T09:10:32;101713.46;;;11.19;37.65
27304;BME280;14791;52.392;13.092;2024-03-08T09:13:01;101714.89;;;11.26;37.48
27304;BME280;14791;52.392;13.092;2024-03-08T09:15:32;101709.64;;;11.34;37.41
27304;BME280;14791;52.392;13.092;2024-03-08T09:18:01;101707.05;;;11.41;37.35
27304;BME280;14791;52.392;13.092;2024-03-08T09:20:30;101712.11;;;11.47;37.22
27304;BME280;14791;52.392;13.092;2024-03-08T09:22:59;101716.28;;;11.53;37.00
27304;BME280;14791;52.392;13.092;2024-03-08T09:25:28;101701.33;;;11.57;37.27
27304;BME280;14791;52.392;13.092;2024-03-08T09:27:57;101701.17;;;11.60;36.97
27304;BME280;14791;52.392;13.092;2024-03-08T09:30:26;101702.21;;;11.66;36.80
27304;BME280;14791;52.392;13.092;2024-03-08T09:32:56;101699.75;;;11.70;36.88
27304;BME280;14791;52.392;13.092;2024-03-08T09:35:25;101699.92;;;11.76;37.05
27304;BME280;14791;52.392;13.092;2024-03-08T09:37:54;101695.67;;;11.81;36.70
27304;BME280;14791;52.392;13.092;2024-03-08T09:40:24;101695.38;;;11.87;36.57
27304;BME280;14791;52.392;13.092;2024-03-08T09:42:53;101698.30;;;11.91;36.30
27304;BME280;14791;52.392;13.092;2024-03-08T09:45:23;101695.08;;;11.93;36.25
27304;BME280;14791;52.392;13.092;2024-03-08T09:47:53;101687.28;;;11.97;36.20
27304;BME280;14791;52.392;13.092;2024-03-08T09:50:23;101688.83;;;12.01;36.36
27304;BME280;14791;52.392;13.092;2024-03-08T09:52:55;101686.39;;;12.05;36.04
27304;BME280;14791;52.392;13.092;2024-03-08T09:55:25;101682.61;;;12.09;36.05
27304;BME280;14791;52.392;13.092;2024-03-08T09:57:56;101680.63;;;12.13;35.96
27304;BME280;14791;52.392;13.092;2024-03-08T10:00:46;101666.12;;;12.17;35.98
27304;BME280;14791;52.392;13.092;2024-03-08T10:03:15;101668.56;;;12.22;36.24
27304;BME280;14791;52.392;13.092;2024-03-08T10:05:44;101670.89;;;12.28;35.94
27304;BME280;14791;52.392;13.092;2024-03-08T10:08:14;101662.54;;;12.34;35.80
27304;BME280;14791;52.392;13.092;2024-03-08T10:10:43;101655.11;;;12.39;35.70
27304;BME280;14791;52.392;13.092;2024-03-08T10:13:12;101656.13;;;12.45;35.93
27304;BME280;14791;52.392;13.092;2024-03-08T10:15:41;101657.11;;;12.51;35.78
27304;BME280;14791;52.392;13.092;2024-03-08T10:18:11;101652.36;;;12.56;36.03
27304;BME280;14791;52.392;13.092;2024-03-08T10:20:40;101655.20;;;12.62;36.03
27304;BME280;14791;52.392;13.092;2024-03-08T10:23:09;101646.19;;;12.63;35.88
27304;BME280;14791;52.392;13.092;2024-03-08T10:25:38;101643.55;;;12.70;36.49
27304;BME280;14791;52.392;13.092;2024-03-08T10:28:07;101642.81;;;12.75;36.58
27304;BME280;14791;52.392;13.092;2024-03-08T10:30:36;101645.34;;;12.79;35.99
27304;BME280;14791;52.392;13.092;2024-03-08T10:33:05;101643.16;;;12.85;36.10
27304;BME280;14791;52.392;13.092;2024-03-08T10:35:34;101637.53;;;12.90;35.74
27304;BME280;14791;52.392;13.092;2024-03-08T10:38:05;101639.58;;;12.93;35.42
27304;BME280;14791;52.392;13.092;2024-03-08T10:40:38;101641.03;;;12.99;35.32
27304;BME280;14791;52.392;13.092;2024-03-08T10:43:11;101638.16;;;13.02;35.18
27304;BME280;14791;52.392;13.092;2024-03-08T10:45:40;101626.02;;;13.04;34.90
27304;BME280;14791;52.392;13.092;2024-03-08T10:48:30;101631.20;;;13.07;35.68
27304;BME280;14791;52.392;13.092;2024-03-08T10:51:03;101630.45;;;13.12;35.13
27304;BME280;14791;52.392;13.092;2024-03-08T10:53:35;101620.91;;;13.15;34.81
27304;BME280;14791;52.392;13.092;2024-03-08T10:56:06;101622.91;;;13.18;35.02
27304;BME280;14791;52.392;13.092;2024-03-08T10:58:37;101628.50;;;13.23;35.27
27304;BME280;14791;52.392;13.092;2024-03-08T11:01:07;101614.84;;;13.27;35.24
27304;BME280;14791;52.392;13.092;2024-03-08T11:03:46;101619.09;;;13.31;34.70
27304;BME280;14791;52.392;13.092;2024-03-08T11:09:00;101614.12;;;13.39;34.23
27304;BME280;14791;52.392;13.092;2024-03-08T11:11:31;101607.63;;;13.44;34.64
27304;BME280;14791;52.392;13.092;2024-03-08T11:14:03;101602.84;;;13.49;34.83
27304;BME280;14791;52.392;13.092;2024-03-08T11:21:39;101583.30;;;13.61;33.85
27304;BME280;14791;52.392;13.092;2024-03-08T11:24:13;101572.37;;;13.64;34.00
27304;BME280;14791;52.392;13.092;2024-03-08T11:26:45;101580.55;;;13.70;33.73
27304;BME280;14791;52.392;13.092;2024-03-08T11:32:08;101575.84;;;13.80;33.68
27304;BME280;14791;52.392;13.092;2024-03-08T11:34:46;101557.81;;;13.82;33.38
27304;BME280;14791;52.392;13.092;2024-03-08T11:37:18;101569.81;;;13.84;34.52
27304;BME280;14791;52.392;13.092;2024-03-08T11:39:52;101563.39;;;13.87;33.79
27304;BME280;14791;52.392;13.092;2024-03-08T11:42:23;101553.79;;;13.90;34.26
27304;BME280;14791;52.392;13.092;2024-03-08T11:44:53;101553.02;;;13.95;34.08
27304;BME280;14791;52.392;13.092;2024-03-08T11:47:23;101550.41;;;14.00;33.55
27304;BME280;14791;52.392;13.092;2024-03-08T11:49:53;101546.86;;;14.07;33.17
27304;BME280;14791;52.392;13.092;2024-03-08T11:52:22;101547.83;;;14.13;33.52
27304;BME280;14791;52.392;13.092;2024-03-08T11:54:54;101538.59;;;14.17;33.21
27304;BME280;14791;52.392;13.092;2024-03-08T11:57:25;101528.44;;;14.22;32.99
27304;BME280;14791;52.392;13.092;2024-03-08T11:59:55;101525.05;;;14.26;33.03
27304;BME280;14791;52.392;13.092;2024-03-08T12:02:26;101522.08;;;14.31;33.14
27304;BME280;14791;52.392;13.092;2024-03-08T12:04:59;101521.29;;;14.36;32.81
27304;BME280;14791;52.392;13.092;2024-03-08T12:07:30;101525.02;;;14.40;32.91
27304;BME280;14791;52.392;13.092;2024-03-08T12:10:21;101504.66;;;14.43;33.12
27304;BME280;14791;52.392;13.092;2024-03-08T12:12:52;101509.15;;;14.50;33.23
27304;BME280;14791;52.392;13.092;2024-03-08T12:15:23;101503.99;;;14.54;33.03
27304;BME280;14791;52.392;13.092;2024-03-08T12:17:53;101500.88;;;14.60;32.82
27304;BME280;14791;52.392;13.092;2024-03-08T12:20:28;101498.37;;;14.64;32.63
27304;BME280;14791;52.392;13.092;2024-03-08T12:23:00;101505.28;;;14.68;32.45
27304;BME280;14791;52.392;13.092;2024-03-08T12:25:32;101496.05;;;14.73;32.60
27304;BME280;14791;52.392;13.092;2024-03-08T12:28:09;101491.72;;;14.77;32.39
27304;BME280;14791;52.392;13.092;2024-03-08T12:30:49;101488.32;;;14.81;32.39
27304;BME280;14791;52.392;13.092;2024-03-08T12:33:23;101484.07;;;14.84;33.43
27304;BME280;14791;52.392;13.092;2024-03-08T12:35:53;101479.45;;;14.86;32.26
27304;BME280;14791;52.392;13.092;2024-03-08T12:38:23;101475.59;;;14.90;32.37
27304;BME280;14791;52.392;13.092;2024-03-08T12:41:01;101469.91;;;14.95;32.20
27304;BME280;14791;52.392;13.092;2024-03-08T12:43:30;101474.58;;;14.98;32.02
27304;BME280;14791;52.392;13.092;2024-03-08T12:45:59;101466.69;;;15.02;31.86
27304;BME280;14791;52.392;13.092;2024-03-08T12:48:28;101460.50;;;15.07;31.54
27304;BME280;14791;52.392;13.092;2024-03-08T12:50:57;101451.62;;;15.13;31.72
27304;BME280;14791;52.392;13.092;2024-03-08T12:53:26;101445.23;;;15.21;31.49
27304;BME280;14791;52.392;13.092;2024-03-08T12:55:56;101440.33;;;15.33;31.88
27304;BME280;14791;52.392;13.092;2024-03-08T12:58:25;101442.88;;;15.60;31.60
27304;BME280;14791;52.392;13.092;2024-03-08T13:00:54;101442.44;;;16.16;31.45
27304;BME280;14791;52.392;13.092;2024-03-08T13:03:23;101442.91;;;16.88;31.43
27304;BME280;14791;52.392;13.092;2024-03-08T13:05:52;101431.98;;;17.70;32.15
27304;BME280;14791;52.392;13.092;2024-03-08T13:08:21;101430.05;;;18.59;31.25
27304;BME280;14791;52.392;13.092;2024-03-08T13:10:52;101433.11;;;19.44;30.79
27304;BME280;14791;52.392;13.092;2024-03-08T13:13:22;101434.84;;;20.26;30.00